Strona główna
METAR-TAF:

METAR-TAF

Lotnisko :

Meriden-Markham Municipal Airport

Meriden, Connecticut, Stany Zjednoczone

Szerokość geograficzna: 41-30-35N, Długość geograficzna: 072-49-40W, wysokość: 31 m

Aktualna obserwacja pogody

Raport powstał 1 godzina i 2 minut temu, godzina 08:53 UTC
Wiatr 7 kt od zachód
Temperatura -10°C
Wilgotność 67%
Ciśnienie 1029 hPa
Widzialność: 16.1 km
bezchmurnie

METAR: KMMK 210853Z AUTO 28007KT 10SM CLR M10/M15 A3038 RMK AO2 SLP289 T11001150 51008

czas: 04:55 (09:55 UTC)


TAF: brakujący

Obserwacja i prognoza pogody dla ponad 4000 lotnisk (raport METAR i TAF).

Dostępne stacje oznaczono żółtymi i czerwonymi punktami na mapie.

Najedź kursorem aby zobaczyć nazwę stacji.

Kliknij aby zobaczyć obserwacje i prognozy pogody.

Aby zmienić mapę: kliknij na zielony przycisk z czarnym krzyżykiem, aby powiększyć; na zielony przycisk z myślnikiem, aby pomniejszyć; na zielone strzałki, aby przejść do map sąsiednich.


METAR-TAF: